Skip Navigation Links
NOAA logo - Click to go to the NOAA homepage
NOAA's National Weather Service
Alaska Aviation Weather Unit
  NWS logo - Click to go to the NWS homepage
Left Navbar Graphic     22 AKDT = 06 GMT

   
NOAA is celebrating 200 years of science, service, and stewardship. Visit the NOAA 200th celebration Web site to learn more.
USA.gov is the U.S. Government's official Web portal to all Federal, state and local government Web resources and services.
Facebook
NWS on Facebook

Important Change Regarding the AAWU Web Presence

 

Over the last several months, the AAWU has been working to navigate its webpages to a nationally supported server. Security, as well as other needs, have necessitated the change.  In the process, we have made an effort to enhance the functionality of our website, as well as some of our products. As of June 20, 2017, aawu.arh.noaa.gov will be discontinued. The new AAWU web address is weather.gov/aawu. It is now live and will run in-parallel with the old site until it is discontinued. Please send any feedback or questions regarding the new webpages to nws.ar.aawu.webauthors@noaa.gov.  Thank you for your patience during this time of transition.
AAWU Home :: Display TAF Add Bookmark
TAF PABT 280537Z 2806/2906 04004KT P6SM SCT050 SCT070 BKN100
     FM282100 06008G15KT P6SM OVC100
     FM290300 09007KT P6SM BKN100=
METAR PABT 280053Z VRB03KT 10SM FEW050CB SCT060 BKN080 12/M05 A3002 RMK
     AO2 SLP176 VIRGA VC SE CB VC SE STNRY T01221050=

METAR PABT 280153Z 03009KT 10SM FEW050CB SCT070 BKN090 09/01 A3002 RMK
     AO2 SLP178 VIRGA VC N AND VC SE AND VC SW CB VC N AND VC SE
     MOV N T00940006 $=

SPECI PABT 280229Z 33005KT 10SM -TSRA FEW036 BKN050CB OVC075 09/00
 A3003 RMK AO2 RAB09 TSB23 OCNL LTGCG VC SE TS VC SE MOV NW CB VC
 N DSPTD P0000 T00890000 $=

METAR PABT 280253Z 19006KT 10SM -TSRA FEW036 BKN050CB OVC075 08/01
 A3004 RMK AO2 RAB09E30B48 TSB23 SLP184 OCNL LTGCG VC SE TS VC SE
 MOV NW CB VC N DSPTD P0000 60000 T00830006 53004 $=

PABT 280304Z 00000KT 10SM -RA FEW036 BKN050CB OVC075 08/02 A3004=

PABT 280304Z 00000KT 10SM -RA FEW036 BKN050CB OVC075 08/02 A3004
     RMK AO2 TSE0258 CB VC E AND VC SE MOV NW P0001 T00830017
     $=

METAR PABT 280353Z 04004KT 10SM -RA SCT050CB BKN070 OVC090 07/02 A3004
     RMK AO2 RAE10B42 TSE0258 SLP183 CB VC E AND VC SE MOV NW
     DSPTG P0001 T00720017 $=

METAR PABT 280453Z 04005KT 10SM FEW050 FEW075 BKN110 07/02 A3004 RMK AO2
     RAE0354 SLP182 CB VC E AND VC SE DSPTD SHRA DSNT NW P0000
     T00720017 $=

METAR PABT 280553Z 04005KT 10SM FEW050 FEW075 BKN120 08/01 A3003 RMK AO2
     SLP180 60003 T00780011 10128 20072 58002 $=


NOAA's National Weather Service
Alaska Aviation Weather Unit
6930 Sand Lake Road
Anchorage, AK 99502-1845
Disclaimer
Credits
Glossary
Privacy Policy
About Us
Career Opportunities
Contact AAWU Internet Services Site last modified: April, 17th 2012